Trans Sea — 9HA2564 — position and weather

sailwx.info

Track history (hours):
 
Tides and Currents Weather Stations Pressure Air Temp Water Temp Dewpoint Dewpoint Depression Visibility Wind Speed Wind Dir Waves Ship Positions

Trans Sea

Last reported at 2016-Apr-28 03:25 UTC. Time now 2016-May-01 11:44 UTC.
Position N 40°01' E 026°04'.

Length 107 m; draft 4.2 m.

Type: Ship (hazmat cat C). MMSI: 248887000.

Date/timePositionNaut miles runAvg speedWind from/ knotsBaromVisibWave heightAir tempDewpointWater temp
2016-Apr-28 03:25N 40°01' E 026°04'13312.1
2016-Apr-27 16:25N 40°51' E 028°46'8 3.8
2016-Apr-27 14:20N 40°57' E 028°53'6 8.1
2016-Apr-27 13:33N 40°53' E 028°60'1212.3
2016-Apr-27 12:33N 40°45' E 029°12'1211.8
2016-Apr-27 11:33N 40°45' E 029°28'4 0.2
2016-Apr-26 11:07N 40°46' E 029°33'1 0.0
2016-Apr-25 04:33N 40°46' E 029°32'7 7.6
2016-Apr-25 03:34N 40°44' E 029°22'1212.3
2016-Apr-25 02:33N 40°42' E 029°06'26010.7
2016-Apr-24 02:12N 38°02' E 024°41'812.3
2016-Apr-24 01:34N 37°56' E 024°35'1212.2
2016-Apr-24 00:33N 37°47' E 024°24'1212.3
2016-Apr-23 23:33N 37°38' E 024°13'1312.5
2016-Apr-23 22:30N 37°27' E 024°04'1212.5
2016-Apr-23 21:31N 37°17' E 023°56'1212.5
2016-Apr-23 20:33N 37°07' E 023°48'1312.6
2016-Apr-23 19:33N 36°56' E 023°39'1312.6
2016-Apr-23 18:29N 36°45' E 023°31'43012.0
2016-Apr-22 06:33N 36°38' E 014°34'1212.5
2016-Apr-22 05:33N 36°42' E 014°20'1312.5
2016-Apr-22 04:33N 36°48' E 014°06'1212.3
2016-Apr-22 03:33N 36°54' E 013°52'1212.2
2016-Apr-22 02:33N 37°00' E 013°39'6712.5
2016-Apr-21 21:12N 37°30' E 012°24'813.0
2016-Apr-21 20:33N 37°33' E 012°13'17312.3
2016-Apr-21 06:31N 38°39' E 008°51'27911.6
2016-Apr-20 06:32N 40°29' E 003°18'1211.7
2016-Apr-20 05:33N 40°33' E 003°04'1211.8
2016-Apr-20 04:33N 40°37' E 002°49'1111.4
2016-Apr-20 03:33N 40°41' E 002°35'1111.2
2016-Apr-20 02:33N 40°45' E 002°21'1111.0
2016-Apr-20 01:33N 40°48' E 002°08'1110.9
2016-Apr-20 00:32N 40°52' E 001°54'14 0.5
2016-Apr-18 17:06N 40°50' E 001°35'3 1.1
2016-Apr-18 14:29N 40°52' E 001°38'2 1.0
2016-Apr-18 12:30N 40°54' E 001°40'1 1.0
2016-Apr-18 11:24N 40°54' E 001°41'1 0.8
2016-Apr-18 10:17N 40°55' E 001°42'  
Track history (hours):
 
Tides and Currents Weather Stations Pressure Air Temp Water Temp Dewpoint Dewpoint Depression Visibility Wind Speed Wind Dir Waves Ship Positions

Trans Sea

Last reported at 2016-Apr-28 03:25 UTC. Time now 2016-May-01 11:44 UTC.
Position N 40°01' E 026°04'.

Length 107 m; draft 4.2 m.

Type: Ship (hazmat cat C). MMSI: 248887000.

Date/timePositionNaut miles runAvg speedWind from/ knotsBaromVisibWave heightAir tempDewpointWater temp
2016-Apr-28 03:25N 40°01' E 026°04'13312.1
2016-Apr-27 16:25N 40°51' E 028°46'8 3.8
2016-Apr-27 14:20N 40°57' E 028°53'6 8.1
2016-Apr-27 13:33N 40°53' E 028°60'1212.3
2016-Apr-27 12:33N 40°45' E 029°12'1211.8
2016-Apr-27 11:33N 40°45' E 029°28'4 0.2
2016-Apr-26 11:07N 40°46' E 029°33'1 0.0
2016-Apr-25 04:33N 40°46' E 029°32'7 7.6
2016-Apr-25 03:34N 40°44' E 029°22'1212.3
2016-Apr-25 02:33N 40°42' E 029°06'26010.7
2016-Apr-24 02:12N 38°02' E 024°41'812.3
2016-Apr-24 01:34N 37°56' E 024°35'1212.2
2016-Apr-24 00:33N 37°47' E 024°24'1212.3
2016-Apr-23 23:33N 37°38' E 024°13'1312.5
2016-Apr-23 22:30N 37°27' E 024°04'1212.5
2016-Apr-23 21:31N 37°17' E 023°56'1212.5
2016-Apr-23 20:33N 37°07' E 023°48'1312.6
2016-Apr-23 19:33N 36°56' E 023°39'1312.6
2016-Apr-23 18:29N 36°45' E 023°31'43012.0
2016-Apr-22 06:33N 36°38' E 014°34'1212.5
2016-Apr-22 05:33N 36°42' E 014°20'1312.5
2016-Apr-22 04:33N 36°48' E 014°06'1212.3
2016-Apr-22 03:33N 36°54' E 013°52'1212.2
2016-Apr-22 02:33N 37°00' E 013°39'6712.5
2016-Apr-21 21:12N 37°30' E 012°24'813.0
2016-Apr-21 20:33N 37°33' E 012°13'17312.3
2016-Apr-21 06:31N 38°39' E 008°51'27911.6
2016-Apr-20 06:32N 40°29' E 003°18'1211.7
2016-Apr-20 05:33N 40°33' E 003°04'1211.8
2016-Apr-20 04:33N 40°37' E 002°49'1111.4
2016-Apr-20 03:33N 40°41' E 002°35'1111.2
2016-Apr-20 02:33N 40°45' E 002°21'1111.0
2016-Apr-20 01:33N 40°48' E 002°08'1110.9
2016-Apr-20 00:32N 40°52' E 001°54'14 0.5
2016-Apr-18 17:06N 40°50' E 001°35'3 1.1
2016-Apr-18 14:29N 40°52' E 001°38'2 1.0
2016-Apr-18 12:30N 40°54' E 001°40'1 1.0
2016-Apr-18 11:24N 40°54' E 001°41'1 0.8
2016-Apr-18 10:17N 40°55' E 001°42'  

Dump ship's entire track history